sensor_id;sensor_type;location;lat;lon;timestamp;P1;durP1;ratioP1;P2;durP2;ratioP2
11092;SDS011;5600;50.864;6.102;2023-06-14T00:01:45;78.10;;;8.27;;
11092;SDS011;5600;50.864;6.102;2023-06-14T00:04:47;128.20;;;9.85;;
11092;SDS011;5600;50.864;6.102;2023-06-14T00:07:51;84.50;;;8.23;;
11092;SDS011;5600;50.864;6.102;2023-06-14T00:10:53;73.80;;;8.02;;
11092;SDS011;5600;50.864;6.102;2023-06-14T00:13:54;67.65;;;7.97;;
11092;SDS011;5600;50.864;6.102;2023-06-14T00:16:56;76.47;;;8.18;;
11092;SDS011;5600;50.864;6.102;2023-06-14T00:19:58;79.95;;;8.07;;
11092;SDS011;5600;50.864;6.102;2023-06-14T00:23:00;69.32;;;8.02;;
11092;SDS011;5600;50.864;6.102;2023-06-14T00:26:01;102.80;;;9.38;;
11092;SDS011;5600;50.864;6.102;2023-06-14T00:29:01;80.50;;;8.32;;
11092;SDS011;5600;50.864;6.102;2023-06-14T00:32:03;77.03;;;8.32;;
11092;SDS011;5600;50.864;6.102;2023-06-14T00:35:04;87.10;;;8.68;;
11092;SDS011;5600;50.864;6.102;2023-06-14T00:38:05;85.93;;;9.05;;
11092;SDS011;5600;50.864;6.102;2023-06-14T00:41:06;80.97;;;8.50;;
11092;SDS011;5600;50.864;6.102;2023-06-14T00:44:08;89.00;;;9.38;;
11092;SDS011;5600;50.864;6.102;2023-06-14T00:47:09;103.53;;;9.23;;
11092;SDS011;5600;50.864;6.102;2023-06-14T00:50:10;96.13;;;9.68;;
11092;SDS011;5600;50.864;6.102;2023-06-14T00:53:13;81.35;;;8.52;;
11092;SDS011;5600;50.864;6.102;2023-06-14T00:56:15;75.50;;;8.60;;
11092;SDS011;5600;50.864;6.102;2023-06-14T00:59:16;82.70;;;9.07;;
11092;SDS011;5600;50.864;6.102;2023-06-14T01:02:17;70.80;;;8.48;;
11092;SDS011;5600;50.864;6.102;2023-06-14T01:05:18;89.60;;;9.05;;
11092;SDS011;5600;50.864;6.102;2023-06-14T01:08:34;95.57;;;9.68;;
11092;SDS011;5600;50.864;6.102;2023-06-14T01:15:21;79.18;;;8.50;;
11092;SDS011;5600;50.864;6.102;2023-06-14T01:18:23;95.57;;;9.68;;
11092;SDS011;5600;50.864;6.102;2023-06-14T01:21:26;82.40;;;9.10;;
11092;SDS011;5600;50.864;6.102;2023-06-14T01:24:28;71.40;;;8.85;;
11092;SDS011;5600;50.864;6.102;2023-06-14T01:27:32;96.82;;;10.52;;
11092;SDS011;5600;50.864;6.102;2023-06-14T01:30:33;103.78;;;9.50;;
11092;SDS011;5600;50.864;6.102;2023-06-14T01:33:34;98.20;;;9.88;;
11092;SDS011;5600;50.864;6.102;2023-06-14T01:36:36;88.13;;;9.60;;
11092;SDS011;5600;50.864;6.102;2023-06-14T01:39:41;100.07;;;9.95;;
11092;SDS011;5600;50.864;6.102;2023-06-14T01:42:45;105.75;;;9.88;;
11092;SDS011;5600;50.864;6.102;2023-06-14T01:45:48;91.10;;;10.30;;
11092;SDS011;5600;50.864;6.102;2023-06-14T01:48:52;74.53;;;9.30;;
11092;SDS011;5600;50.864;6.102;2023-06-14T01:51:54;83.85;;;10.15;;
11092;SDS011;5600;50.864;6.102;2023-06-14T01:54:55;106.88;;;10.80;;
11092;SDS011;5600;50.864;6.102;2023-06-14T01:57:56;88.10;;;10.60;;
11092;SDS011;5600;50.864;6.102;2023-06-14T02:00:58;90.72;;;10.23;;
11092;SDS011;5600;50.864;6.102;2023-06-14T02:04:02;89.50;;;9.60;;
11092;SDS011;5600;50.864;6.102;2023-06-14T02:07:03;101.15;;;10.98;;
11092;SDS011;5600;50.864;6.102;2023-06-14T02:10:04;73.68;;;9.05;;
11092;SDS011;5600;50.864;6.102;2023-06-14T02:13:05;76.40;;;9.13;;
11092;SDS011;5600;50.864;6.102;2023-06-14T02:16:06;79.53;;;9.90;;
11092;SDS011;5600;50.864;6.102;2023-06-14T02:19:07;75.13;;;9.87;;
11092;SDS011;5600;50.864;6.102;2023-06-14T02:22:10;92.50;;;10.50;;
11092;SDS011;5600;50.864;6.102;2023-06-14T02:25:11;89.00;;;10.60;;
11092;SDS011;5600;50.864;6.102;2023-06-14T02:28:14;90.43;;;10.48;;
11092;SDS011;5600;50.864;6.102;2023-06-14T02:31:15;75.28;;;9.02;;
11092;SDS011;5600;50.864;6.102;2023-06-14T02:34:16;76.27;;;9.80;;
11092;SDS011;5600;50.864;6.102;2023-06-14T02:37:18;82.38;;;9.73;;
11092;SDS011;5600;50.864;6.102;2023-06-14T02:40:20;50.37;;;8.63;;
11092;SDS011;5600;50.864;6.102;2023-06-14T02:43:21;57.83;;;9.00;;
11092;SDS011;5600;50.864;6.102;2023-06-14T02:46:22;46.70;;;8.50;;
11092;SDS011;5600;50.864;6.102;2023-06-14T02:49:24;89.57;;;10.00;;
11092;SDS011;5600;50.864;6.102;2023-06-14T02:52:25;94.60;;;10.60;;
11092;SDS011;5600;50.864;6.102;2023-06-14T02:55:26;86.57;;;9.90;;
11092;SDS011;5600;50.864;6.102;2023-06-14T02:58:28;91.63;;;10.17;;
11092;SDS011;5600;50.864;6.102;2023-06-14T03:01:29;81.30;;;10.03;;
11092;SDS011;5600;50.864;6.102;2023-06-14T03:04:35;120.77;;;11.47;;
11092;SDS011;5600;50.864;6.102;2023-06-14T03:07:41;94.27;;;10.17;;
11092;SDS011;5600;50.864;6.102;2023-06-14T03:10:45;133.27;;;11.70;;
11092;SDS011;5600;50.864;6.102;2023-06-14T03:13:47;97.50;;;10.70;;
11092;SDS011;5600;50.864;6.102;2023-06-14T03:16:48;73.20;;;10.03;;
11092;SDS011;5600;50.864;6.102;2023-06-14T03:19:51;90.50;;;10.57;;
11092;SDS011;5600;50.864;6.102;2023-06-14T03:22:52;103.67;;;11.20;;
11092;SDS011;5600;50.864;6.102;2023-06-14T03:25:54;81.23;;;10.90;;
11092;SDS011;5600;50.864;6.102;2023-06-14T03:28:56;101.90;;;11.97;;
11092;SDS011;5600;50.864;6.102;2023-06-14T03:32:01;75.50;;;10.63;;
11092;SDS011;5600;50.864;6.102;2023-06-14T03:35:15;76.07;;;10.67;;
11092;SDS011;5600;50.864;6.102;2023-06-14T03:38:18;84.37;;;11.40;;
11092;SDS011;5600;50.864;6.102;2023-06-14T03:41:19;83.00;;;10.63;;
11092;SDS011;5600;50.864;6.102;2023-06-14T03:44:21;85.17;;;11.30;;
11092;SDS011;5600;50.864;6.102;2023-06-14T03:47:22;88.97;;;11.47;;
11092;SDS011;5600;50.864;6.102;2023-06-14T03:50:23;96.87;;;11.70;;
11092;SDS011;5600;50.864;6.102;2023-06-14T03:53:24;98.93;;;11.93;;
11092;SDS011;5600;50.864;6.102;2023-06-14T03:56:28;73.40;;;10.00;;
11092;SDS011;5600;50.864;6.102;2023-06-14T03:59:30;88.03;;;10.97;;
11092;SDS011;5600;50.864;6.102;2023-06-14T04:02:32;84.40;;;10.57;;
11092;SDS011;5600;50.864;6.102;2023-06-14T04:05:33;87.00;;;11.07;;
11092;SDS011;5600;50.864;6.102;2023-06-14T04:08:34;114.90;;;12.03;;
11092;SDS011;5600;50.864;6.102;2023-06-14T04:11:35;97.83;;;12.13;;
11092;SDS011;5600;50.864;6.102;2023-06-14T04:14:37;119.60;;;13.27;;
11092;SDS011;5600;50.864;6.102;2023-06-14T04:17:41;86.00;;;11.13;;
11092;SDS011;5600;50.864;6.102;2023-06-14T04:20:42;115.13;;;12.40;;
11092;SDS011;5600;50.864;6.102;2023-06-14T04:23:44;107.77;;;12.10;;
11092;SDS011;5600;50.864;6.102;2023-06-14T04:26:46;100.30;;;12.80;;
11092;SDS011;5600;50.864;6.102;2023-06-14T04:29:52;60.90;;;9.93;;
11092;SDS011;5600;50.864;6.102;2023-06-14T04:32:57;100.03;;;12.40;;
11092;SDS011;5600;50.864;6.102;2023-06-14T04:36:00;74.23;;;11.40;;
11092;SDS011;5600;50.864;6.102;2023-06-14T04:39:02;96.67;;;13.03;;
11092;SDS011;5600;50.864;6.102;2023-06-14T04:42:05;64.70;;;10.77;;
11092;SDS011;5600;50.864;6.102;2023-06-14T04:45:08;80.47;;;11.80;;
11092;SDS011;5600;50.864;6.102;2023-06-14T04:48:11;73.43;;;12.03;;
11092;SDS011;5600;50.864;6.102;2023-06-14T04:51:12;92.57;;;11.80;;
11092;SDS011;5600;50.864;6.102;2023-06-14T04:54:13;82.33;;;11.20;;
11092;SDS011;5600;50.864;6.102;2023-06-14T04:57:15;67.77;;;10.33;;
11092;SDS011;5600;50.864;6.102;2023-06-14T05:00:18;57.30;;;10.17;;
11092;SDS011;5600;50.864;6.102;2023-06-14T05:03:19;80.50;;;10.87;;
11092;SDS011;5600;50.864;6.102;2023-06-14T05:06:21;84.73;;;12.27;;
11092;SDS011;5600;50.864;6.102;2023-06-14T05:09:22;90.32;;;11.75;;
11092;SDS011;5600;50.864;6.102;2023-06-14T05:12:24;104.63;;;11.95;;
11092;SDS011;5600;50.864;6.102;2023-06-14T05:15:25;103.83;;;11.83;;
11092;SDS011;5600;50.864;6.102;2023-06-14T05:18:26;90.67;;;13.20;;
11092;SDS011;5600;50.864;6.102;2023-06-14T05:21:28;77.67;;;12.07;;
11092;SDS011;5600;50.864;6.102;2023-06-14T05:24:29;131.50;;;13.63;;
11092;SDS011;5600;50.864;6.102;2023-06-14T05:27:30;80.20;;;11.00;;
11092;SDS011;5600;50.864;6.102;2023-06-14T05:30:31;48.63;;;9.95;;
11092;SDS011;5600;50.864;6.102;2023-06-14T05:33:33;110.45;;;11.77;;
11092;SDS011;5600;50.864;6.102;2023-06-14T05:36:34;118.07;;;12.07;;
11092;SDS011;5600;50.864;6.102;2023-06-14T05:39:37;106.65;;;11.85;;
11092;SDS011;5600;50.864;6.102;2023-06-14T05:42:38;111.38;;;12.18;;
11092;SDS011;5600;50.864;6.102;2023-06-14T05:45:38;105.72;;;10.98;;
11092;SDS011;5600;50.864;6.102;2023-06-14T05:48:40;84.93;;;10.15;;
11092;SDS011;5600;50.864;6.102;2023-06-14T05:51:40;72.22;;;9.40;;
11092;SDS011;5600;50.864;6.102;2023-06-14T05:54:41;112.90;;;10.02;;
11092;SDS011;5600;50.864;6.102;2023-06-14T05:57:42;103.75;;;9.70;;
11092;SDS011;5600;50.864;6.102;2023-06-14T06:00:43;98.88;;;9.00;;
11092;SDS011;5600;50.864;6.102;2023-06-14T06:03:44;89.57;;;8.30;;
11092;SDS011;5600;50.864;6.102;2023-06-14T06:06:45;85.15;;;7.85;;
11092;SDS011;5600;50.864;6.102;2023-06-14T06:09:47;78.95;;;7.68;;
11092;SDS011;5600;50.864;6.102;2023-06-14T06:12:48;117.95;;;9.25;;
11092;SDS011;5600;50.864;6.102;2023-06-14T06:15:52;79.22;;;8.00;;
11092;SDS011;5600;50.864;6.102;2023-06-14T06:18:53;127.43;;;9.50;;
11092;SDS011;5600;50.864;6.102;2023-06-14T06:21:54;91.10;;;8.18;;
11092;SDS011;5600;50.864;6.102;2023-06-14T06:24:55;104.72;;;8.93;;
11092;SDS011;5600;50.864;6.102;2023-06-14T06:27:56;113.72;;;9.20;;
11092;SDS011;5600;50.864;6.102;2023-06-14T06:30:57;109.03;;;8.88;;
11092;SDS011;5600;50.864;6.102;2023-06-14T06:33:58;84.03;;;8.07;;
11092;SDS011;5600;50.864;6.102;2023-06-14T06:36:59;65.85;;;7.43;;
11092;SDS011;5600;50.864;6.102;2023-06-14T06:40:01;84.70;;;8.20;;
11092;SDS011;5600;50.864;6.102;2023-06-14T06:43:03;96.65;;;8.52;;
11092;SDS011;5600;50.864;6.102;2023-06-14T06:46:08;85.22;;;8.45;;
11092;SDS011;5600;50.864;6.102;2023-06-14T06:49:09;99.15;;;8.77;;
11092;SDS011;5600;50.864;6.102;2023-06-14T06:52:12;87.75;;;8.95;;
11092;SDS011;5600;50.864;6.102;2023-06-14T06:55:13;92.20;;;8.65;;
11092;SDS011;5600;50.864;6.102;2023-06-14T06:58:13;92.85;;;8.60;;
11092;SDS011;5600;50.864;6.102;2023-06-14T07:01:15;86.95;;;9.15;;
11092;SDS011;5600;50.864;6.102;2023-06-14T07:04:16;92.07;;;8.80;;
11092;SDS011;5600;50.864;6.102;2023-06-14T07:07:17;96.90;;;8.40;;
11092;SDS011;5600;50.864;6.102;2023-06-14T07:10:19;77.22;;;7.90;;
11092;SDS011;5600;50.864;6.102;2023-06-14T07:13:20;92.20;;;8.52;;
11092;SDS011;5600;50.864;6.102;2023-06-14T07:16:21;75.88;;;7.60;;
11092;SDS011;5600;50.864;6.102;2023-06-14T07:19:23;92.05;;;7.65;;
11092;SDS011;5600;50.864;6.102;2023-06-14T07:22:24;75.85;;;7.30;;
11092;SDS011;5600;50.864;6.102;2023-06-14T07:25:25;72.60;;;6.80;;
11092;SDS011;5600;50.864;6.102;2023-06-14T07:28:26;103.45;;;8.25;;
11092;SDS011;5600;50.864;6.102;2023-06-14T07:31:28;82.60;;;7.28;;
11092;SDS011;5600;50.864;6.102;2023-06-14T07:34:29;63.58;;;6.85;;
11092;SDS011;5600;50.864;6.102;2023-06-14T07:37:30;119.30;;;9.00;;
11092;SDS011;5600;50.864;6.102;2023-06-14T07:40:31;66.75;;;6.90;;
11092;SDS011;5600;50.864;6.102;2023-06-14T07:43:32;96.47;;;8.10;;
11092;SDS011;5600;50.864;6.102;2023-06-14T07:46:33;76.70;;;7.13;;
11092;SDS011;5600;50.864;6.102;2023-06-14T07:49:34;68.53;;;7.43;;
11092;SDS011;5600;50.864;6.102;2023-06-14T07:52:35;96.20;;;8.18;;
11092;SDS011;5600;50.864;6.102;2023-06-14T07:55:36;79.65;;;6.93;;
11092;SDS011;5600;50.864;6.102;2023-06-14T07:58:38;89.88;;;7.68;;
11092;SDS011;5600;50.864;6.102;2023-06-14T08:01:39;81.80;;;6.97;;
11092;SDS011;5600;50.864;6.102;2023-06-14T08:04:47;136.55;;;9.20;;
11092;SDS011;5600;50.864;6.102;2023-06-14T08:07:48;109.50;;;7.93;;
11092;SDS011;5600;50.864;6.102;2023-06-14T08:10:49;113.15;;;8.65;;
11092;SDS011;5600;50.864;6.102;2023-06-14T08:13:55;63.75;;;5.85;;
11092;SDS011;5600;50.864;6.102;2023-06-14T08:16:57;79.22;;;6.72;;
11092;SDS011;5600;50.864;6.102;2023-06-14T08:19:58;75.40;;;6.28;;
11092;SDS011;5600;50.864;6.102;2023-06-14T08:22:59;75.50;;;6.30;;
11092;SDS011;5600;50.864;6.102;2023-06-14T08:26:00;85.68;;;6.40;;
11092;SDS011;5600;50.864;6.102;2023-06-14T08:29:04;80.78;;;6.10;;
11092;SDS011;5600;50.864;6.102;2023-06-14T08:32:05;54.72;;;5.18;;
11092;SDS011;5600;50.864;6.102;2023-06-14T08:35:07;91.22;;;6.55;;
11092;SDS011;5600;50.864;6.102;2023-06-14T08:38:09;91.88;;;6.95;;
11092;SDS011;5600;50.864;6.102;2023-06-14T08:41:11;74.72;;;6.07;;
11092;SDS011;5600;50.864;6.102;2023-06-14T08:44:15;65.40;;;5.57;;
11092;SDS011;5600;50.864;6.102;2023-06-14T08:47:19;81.07;;;5.85;;
11092;SDS011;5600;50.864;6.102;2023-06-14T08:50:21;71.50;;;6.15;;
11092;SDS011;5600;50.864;6.102;2023-06-14T08:53:23;88.88;;;6.57;;
11092;SDS011;5600;50.864;6.102;2023-06-14T08:56:25;71.65;;;5.80;;
11092;SDS011;5600;50.864;6.102;2023-06-14T08:59:27;111.07;;;7.05;;
11092;SDS011;5600;50.864;6.102;2023-06-14T09:02:32;93.15;;;6.97;;
11092;SDS011;5600;50.864;6.102;2023-06-14T09:05:35;81.65;;;6.38;;
11092;SDS011;5600;50.864;6.102;2023-06-14T09:08:36;78.25;;;6.35;;
11092;SDS011;5600;50.864;6.102;2023-06-14T09:11:41;100.15;;;6.60;;
11092;SDS011;5600;50.864;6.102;2023-06-14T09:14:42;117.85;;;7.55;;
11092;SDS011;5600;50.864;6.102;2023-06-14T09:17:43;92.25;;;6.57;;
11092;SDS011;5600;50.864;6.102;2023-06-14T09:20:44;98.53;;;6.85;;
11092;SDS011;5600;50.864;6.102;2023-06-14T09:23:47;81.70;;;6.18;;
11092;SDS011;5600;50.864;6.102;2023-06-14T09:26:50;93.55;;;6.43;;
11092;SDS011;5600;50.864;6.102;2023-06-14T09:29:51;90.20;;;6.50;;
11092;SDS011;5600;50.864;6.102;2023-06-14T09:32:52;103.03;;;6.68;;
11092;SDS011;5600;50.864;6.102;2023-06-14T09:35:56;92.00;;;6.55;;
11092;SDS011;5600;50.864;6.102;2023-06-14T09:38:57;66.18;;;5.13;;
11092;SDS011;5600;50.864;6.102;2023-06-14T09:42:00;74.90;;;5.57;;
11092;SDS011;5600;50.864;6.102;2023-06-14T09:45:02;98.68;;;6.63;;
11092;SDS011;5600;50.864;6.102;2023-06-14T09:48:03;160.40;;;8.90;;
11092;SDS011;5600;50.864;6.102;2023-06-14T09:51:05;110.60;;;7.00;;
11092;SDS011;5600;50.864;6.102;2023-06-14T09:54:06;97.75;;;6.47;;
11092;SDS011;5600;50.864;6.102;2023-06-14T09:57:09;90.00;;;6.22;;
11092;SDS011;5600;50.864;6.102;2023-06-14T10:00:12;90.13;;;6.05;;
11092;SDS011;5600;50.864;6.102;2023-06-14T10:03:24;55.05;;;4.80;;
11092;SDS011;5600;50.864;6.102;2023-06-14T10:06:28;83.40;;;5.68;;
11092;SDS011;5600;50.864;6.102;2023-06-14T10:09:30;86.38;;;5.65;;
11092;SDS011;5600;50.864;6.102;2023-06-14T10:12:31;92.30;;;5.97;;
11092;SDS011;5600;50.864;6.102;2023-06-14T10:15:41;74.30;;;5.45;;
11092;SDS011;5600;50.864;6.102;2023-06-14T10:22:06;76.85;;;5.43;;
11092;SDS011;5600;50.864;6.102;2023-06-14T10:25:25;80.60;;;5.47;;
11092;SDS011;5600;50.864;6.102;2023-06-14T10:28:28;78.70;;;5.47;;
11092;SDS011;5600;50.864;6.102;2023-06-14T10:31:43;69.22;;;5.03;;
11092;SDS011;5600;50.864;6.102;2023-06-14T10:34:44;110.75;;;6.60;;
11092;SDS011;5600;50.864;6.102;2023-06-14T10:37:46;82.97;;;5.38;;
11092;SDS011;5600;50.864;6.102;2023-06-14T10:40:52;84.75;;;5.35;;
11092;SDS011;5600;50.864;6.102;2023-06-14T10:44:10;72.88;;;4.90;;
11092;SDS011;5600;50.864;6.102;2023-06-14T10:47:24;53.63;;;4.15;;
11092;SDS011;5600;50.864;6.102;2023-06-14T10:50:29;62.45;;;4.45;;
11092;SDS011;5600;50.864;6.102;2023-06-14T10:53:30;78.50;;;4.88;;
11092;SDS011;5600;50.864;6.102;2023-06-14T10:56:47;88.13;;;5.60;;
11092;SDS011;5600;50.864;6.102;2023-06-14T10:59:48;103.25;;;6.00;;
11092;SDS011;5600;50.864;6.102;2023-06-14T11:02:56;100.45;;;6.43;;
11092;SDS011;5600;50.864;6.102;2023-06-14T11:06:21;54.75;;;3.95;;
11092;SDS011;5600;50.864;6.102;2023-06-14T11:09:51;89.05;;;5.70;;
11092;SDS011;5600;50.864;6.102;2023-06-14T11:13:15;56.75;;;4.28;;
11092;SDS011;5600;50.864;6.102;2023-06-14T11:16:17;107.95;;;6.57;;
11092;SDS011;5600;50.864;6.102;2023-06-14T11:19:21;80.35;;;5.53;;
11092;SDS011;5600;50.864;6.102;2023-06-14T11:22:22;89.30;;;5.70;;
11092;SDS011;5600;50.864;6.102;2023-06-14T11:25:23;78.90;;;5.07;;
11092;SDS011;5600;50.864;6.102;2023-06-14T11:28:24;103.28;;;6.72;;
11092;SDS011;5600;50.864;6.102;2023-06-14T11:31:25;63.55;;;4.68;;
11092;SDS011;5600;50.864;6.102;2023-06-14T11:34:27;67.32;;;4.78;;
11092;SDS011;5600;50.864;6.102;2023-06-14T11:37:28;70.95;;;4.68;;
11092;SDS011;5600;50.864;6.102;2023-06-14T11:40:30;77.88;;;5.03;;
11092;SDS011;5600;50.864;6.102;2023-06-14T11:43:31;70.55;;;5.03;;
11092;SDS011;5600;50.864;6.102;2023-06-14T11:46:35;126.70;;;7.32;;
11092;SDS011;5600;50.864;6.102;2023-06-14T11:49:36;94.00;;;5.63;;
11092;SDS011;5600;50.864;6.102;2023-06-14T11:52:37;86.20;;;5.72;;
11092;SDS011;5600;50.864;6.102;2023-06-14T11:55:38;89.65;;;5.60;;
11092;SDS011;5600;50.864;6.102;2023-06-14T11:58:42;82.82;;;5.15;;
11092;SDS011;5600;50.864;6.102;2023-06-14T12:01:43;78.68;;;5.05;;
11092;SDS011;5600;50.864;6.102;2023-06-14T12:04:48;111.80;;;6.50;;
11092;SDS011;5600;50.864;6.102;2023-06-14T12:07:49;104.55;;;6.20;;
11092;SDS011;5600;50.864;6.102;2023-06-14T12:10:53;77.38;;;5.28;;
11092;SDS011;5600;50.864;6.102;2023-06-14T12:13:54;89.03;;;5.80;;
11092;SDS011;5600;50.864;6.102;2023-06-14T12:17:03;75.40;;;5.18;;
11092;SDS011;5600;50.864;6.102;2023-06-14T12:20:08;68.63;;;4.82;;
11092;SDS011;5600;50.864;6.102;2023-06-14T12:23:11;89.57;;;5.97;;
11092;SDS011;5600;50.864;6.102;2023-06-14T12:26:15;69.00;;;4.97;;
11092;SDS011;5600;50.864;6.102;2023-06-14T12:29:18;67.80;;;4.68;;
11092;SDS011;5600;50.864;6.102;2023-06-14T12:32:19;75.35;;;5.47;;
11092;SDS011;5600;50.864;6.102;2023-06-14T12:35:20;82.90;;;5.13;;
11092;SDS011;5600;50.864;6.102;2023-06-14T12:38:21;96.80;;;5.50;;
11092;SDS011;5600;50.864;6.102;2023-06-14T12:41:22;80.07;;;5.70;;
11092;SDS011;5600;50.864;6.102;2023-06-14T12:44:24;62.63;;;4.63;;
11092;SDS011;5600;50.864;6.102;2023-06-14T12:47:25;80.28;;;4.97;;
11092;SDS011;5600;50.864;6.102;2023-06-14T12:50:27;75.55;;;4.85;;
11092;SDS011;5600;50.864;6.102;2023-06-14T12:53:28;54.28;;;4.20;;
11092;SDS011;5600;50.864;6.102;2023-06-14T12:56:29;97.90;;;5.95;;
11092;SDS011;5600;50.864;6.102;2023-06-14T12:59:30;75.78;;;5.05;;
11092;SDS011;5600;50.864;6.102;2023-06-14T13:02:33;94.05;;;5.75;;
11092;SDS011;5600;50.864;6.102;2023-06-14T13:05:35;78.53;;;5.22;;
11092;SDS011;5600;50.864;6.102;2023-06-14T13:08:37;123.55;;;6.82;;
11092;SDS011;5600;50.864;6.102;2023-06-14T13:11:38;88.88;;;5.50;;
11092;SDS011;5600;50.864;6.102;2023-06-14T13:14:40;122.88;;;7.00;;
11092;SDS011;5600;50.864;6.102;2023-06-14T13:17:41;87.28;;;5.38;;
11092;SDS011;5600;50.864;6.102;2023-06-14T13:20:44;100.78;;;5.80;;
11092;SDS011;5600;50.864;6.102;2023-06-14T13:23:46;80.80;;;5.78;;
11092;SDS011;5600;50.864;6.102;2023-06-14T13:26:47;91.68;;;5.70;;
11092;SDS011;5600;50.864;6.102;2023-06-14T13:29:48;105.88;;;6.40;;
11092;SDS011;5600;50.864;6.102;2023-06-14T13:32:48;80.20;;;5.60;;
11092;SDS011;5600;50.864;6.102;2023-06-14T13:35:52;105.05;;;6.22;;
11092;SDS011;5600;50.864;6.102;2023-06-14T13:38:53;62.60;;;4.60;;
11092;SDS011;5600;50.864;6.102;2023-06-14T13:41:55;69.00;;;4.97;;
11092;SDS011;5600;50.864;6.102;2023-06-14T13:44:56;97.60;;;5.97;;
11092;SDS011;5600;50.864;6.102;2023-06-14T13:47:57;71.88;;;5.13;;
11092;SDS011;5600;50.864;6.102;2023-06-14T13:51:01;80.70;;;5.60;;
11092;SDS011;5600;50.864;6.102;2023-06-14T13:54:04;148.48;;;8.23;;
11092;SDS011;5600;50.864;6.102;2023-06-14T13:57:05;98.88;;;6.57;;
11092;SDS011;5600;50.864;6.102;2023-06-14T14:00:07;88.95;;;5.95;;
11092;SDS011;5600;50.864;6.102;2023-06-14T14:03:16;78.00;;;5.70;;
11092;SDS011;5600;50.864;6.102;2023-06-14T14:06:17;57.38;;;4.55;;
11092;SDS011;5600;50.864;6.102;2023-06-14T14:09:18;75.57;;;5.35;;
11092;SDS011;5600;50.864;6.102;2023-06-14T14:12:19;66.20;;;5.13;;
11092;SDS011;5600;50.864;6.102;2023-06-14T14:15:20;95.65;;;6.45;;
11092;SDS011;5600;50.864;6.102;2023-06-14T14:18:21;84.10;;;5.82;;
11092;SDS011;5600;50.864;6.102;2023-06-14T14:21:23;100.97;;;6.53;;
11092;SDS011;5600;50.864;6.102;2023-06-14T14:24:23;98.10;;;6.70;;
11092;SDS011;5600;50.864;6.102;2023-06-14T14:27:25;66.82;;;5.15;;
11092;SDS011;5600;50.864;6.102;2023-06-14T14:30:25;85.82;;;6.15;;
11092;SDS011;5600;50.864;6.102;2023-06-14T14:33:26;56.38;;;4.53;;
11092;SDS011;5600;50.864;6.102;2023-06-14T14:36:27;45.70;;;4.15;;
11092;SDS011;5600;50.864;6.102;2023-06-14T14:39:29;76.53;;;5.55;;
11092;SDS011;5600;50.864;6.102;2023-06-14T14:42:32;77.43;;;5.75;;
11092;SDS011;5600;50.864;6.102;2023-06-14T14:45:33;87.45;;;5.70;;
11092;SDS011;5600;50.864;6.102;2023-06-14T14:48:34;105.80;;;6.57;;
11092;SDS011;5600;50.864;6.102;2023-06-14T14:51:35;77.47;;;5.93;;
11092;SDS011;5600;50.864;6.102;2023-06-14T14:54:38;93.70;;;6.03;;
11092;SDS011;5600;50.864;6.102;2023-06-14T14:57:39;128.98;;;8.18;;
11092;SDS011;5600;50.864;6.102;2023-06-14T15:00:40;78.50;;;5.68;;
11092;SDS011;5600;50.864;6.102;2023-06-14T15:03:41;89.47;;;5.88;;
11092;SDS011;5600;50.864;6.102;2023-06-14T15:06:42;87.03;;;5.75;;
11092;SDS011;5600;50.864;6.102;2023-06-14T15:09:42;70.50;;;5.05;;
11092;SDS011;5600;50.864;6.102;2023-06-14T15:12:43;93.80;;;6.10;;
11092;SDS011;5600;50.864;6.102;2023-06-14T15:15:45;93.13;;;5.70;;
11092;SDS011;5600;50.864;6.102;2023-06-14T15:18:46;81.18;;;5.47;;
11092;SDS011;5600;50.864;6.102;2023-06-14T15:21:47;76.53;;;4.97;;
11092;SDS011;5600;50.864;6.102;2023-06-14T15:24:48;113.53;;;6.60;;
11092;SDS011;5600;50.864;6.102;2023-06-14T15:27:49;135.40;;;7.65;;
11092;SDS011;5600;50.864;6.102;2023-06-14T15:30:50;91.07;;;5.50;;
11092;SDS011;5600;50.864;6.102;2023-06-14T15:33:51;149.68;;;7.93;;
11092;SDS011;5600;50.864;6.102;2023-06-14T15:36:52;43.35;;;3.40;;
11092;SDS011;5600;50.864;6.102;2023-06-14T15:39:55;51.70;;;3.97;;
11092;SDS011;5600;50.864;6.102;2023-06-14T15:42:57;64.65;;;4.57;;
11092;SDS011;5600;50.864;6.102;2023-06-14T15:45:58;61.33;;;4.32;;
11092;SDS011;5600;50.864;6.102;2023-06-14T15:48:59;60.35;;;4.13;;
11092;SDS011;5600;50.864;6.102;2023-06-14T15:52:00;75.45;;;4.75;;
11092;SDS011;5600;50.864;6.102;2023-06-14T15:55:01;97.50;;;5.97;;
11092;SDS011;5600;50.864;6.102;2023-06-14T15:58:03;83.40;;;5.28;;
11092;SDS011;5600;50.864;6.102;2023-06-14T16:01:04;81.18;;;5.32;;
11092;SDS011;5600;50.864;6.102;2023-06-14T16:04:05;67.57;;;4.53;;
11092;SDS011;5600;50.864;6.102;2023-06-14T16:07:06;78.35;;;4.97;;
11092;SDS011;5600;50.864;6.102;2023-06-14T16:10:07;74.18;;;5.03;;
11092;SDS011;5600;50.864;6.102;2023-06-14T16:13:08;60.92;;;4.18;;
11092;SDS011;5600;50.864;6.102;2023-06-14T16:16:09;74.65;;;4.85;;
11092;SDS011;5600;50.864;6.102;2023-06-14T16:19:10;66.93;;;5.03;;
11092;SDS011;5600;50.864;6.102;2023-06-14T16:22:11;74.68;;;4.93;;
11092;SDS011;5600;50.864;6.102;2023-06-14T16:25:12;77.35;;;5.03;;
11092;SDS011;5600;50.864;6.102;2023-06-14T16:28:14;88.88;;;5.43;;
11092;SDS011;5600;50.864;6.102;2023-06-14T16:31:15;66.75;;;4.60;;
11092;SDS011;5600;50.864;6.102;2023-06-14T16:34:19;60.60;;;4.43;;
11092;SDS011;5600;50.864;6.102;2023-06-14T16:37:20;55.50;;;4.43;;
11092;SDS011;5600;50.864;6.102;2023-06-14T16:40:21;86.70;;;5.55;;
11092;SDS011;5600;50.864;6.102;2023-06-14T16:43:22;71.15;;;4.80;;
11092;SDS011;5600;50.864;6.102;2023-06-14T16:46:30;72.88;;;5.10;;
11092;SDS011;5600;50.864;6.102;2023-06-14T16:49:32;81.28;;;5.28;;
11092;SDS011;5600;50.864;6.102;2023-06-14T16:52:32;74.85;;;5.15;;
11092;SDS011;5600;50.864;6.102;2023-06-14T16:55:33;83.93;;;5.28;;
11092;SDS011;5600;50.864;6.102;2023-06-14T16:58:36;65.05;;;4.88;;
11092;SDS011;5600;50.864;6.102;2023-06-14T17:01:37;78.32;;;5.10;;
11092;SDS011;5600;50.864;6.102;2023-06-14T17:04:38;83.68;;;5.28;;
11092;SDS011;5600;50.864;6.102;2023-06-14T17:07:39;58.63;;;4.32;;
11092;SDS011;5600;50.864;6.102;2023-06-14T17:10:40;145.77;;;7.68;;
11092;SDS011;5600;50.864;6.102;2023-06-14T17:13:41;76.25;;;4.95;;
11092;SDS011;5600;50.864;6.102;2023-06-14T17:16:42;78.43;;;5.30;;
11092;SDS011;5600;50.864;6.102;2023-06-14T17:19:43;88.22;;;5.63;;
11092;SDS011;5600;50.864;6.102;2023-06-14T17:22:44;78.10;;;5.15;;
11092;SDS011;5600;50.864;6.102;2023-06-14T17:25:46;69.40;;;4.80;;
11092;SDS011;5600;50.864;6.102;2023-06-14T17:28:47;83.80;;;5.40;;
11092;SDS011;5600;50.864;6.102;2023-06-14T17:31:48;69.57;;;4.82;;
11092;SDS011;5600;50.864;6.102;2023-06-14T17:34:49;102.57;;;6.18;;
11092;SDS011;5600;50.864;6.102;2023-06-14T17:37:50;70.82;;;4.80;;
11092;SDS011;5600;50.864;6.102;2023-06-14T17:40:52;77.97;;;5.15;;
11092;SDS011;5600;50.864;6.102;2023-06-14T17:43:53;65.13;;;4.80;;
11092;SDS011;5600;50.864;6.102;2023-06-14T17:46:54;50.35;;;3.90;;
11092;SDS011;5600;50.864;6.102;2023-06-14T17:49:55;53.88;;;4.45;;
11092;SDS011;5600;50.864;6.102;2023-06-14T17:52:56;57.88;;;4.45;;
11092;SDS011;5600;50.864;6.102;2023-06-14T17:55:58;45.28;;;3.83;;
11092;SDS011;5600;50.864;6.102;2023-06-14T17:59:03;65.07;;;4.72;;
11092;SDS011;5600;50.864;6.102;2023-06-14T18:02:04;64.03;;;4.57;;
11092;SDS011;5600;50.864;6.102;2023-06-14T18:05:05;70.65;;;5.07;;
11092;SDS011;5600;50.864;6.102;2023-06-14T18:08:06;52.33;;;4.05;;
11092;SDS011;5600;50.864;6.102;2023-06-14T18:11:07;90.43;;;5.75;;
11092;SDS011;5600;50.864;6.102;2023-06-14T18:14:08;54.38;;;4.10;;
11092;SDS011;5600;50.864;6.102;2023-06-14T18:17:09;54.80;;;4.38;;
11092;SDS011;5600;50.864;6.102;2023-06-14T18:20:10;57.17;;;4.35;;